Wetterdaten: aktuell Sonntag, 21.01.2018 11:25
Datum Zeit Temp. I. Temp. A. Bodent.-20cm Feuchte I. Feuchte A. BlattFeuchte BodenFeuchte Luftdruck Regen Wind Richtung Richtung Sonnenschein T Regen ET UV Solar Taupunkt Windchill Windben Empfang
21.01.2018 11:25 21,4 C 0,8 C 3,9 C 42 % 92 % 15 lf 7 cb 1008,4 hPa 0,4 mm 0,0 km/h (0 Bft) N-NW 328 0 min 10 min 0,025 mm 0,0 UV-I 76 W/m -0,3 C 0,8 C 0,0 km/h (0 Bft) 100,00 %
21.01.2018 10:25 21,8 C 0,7 C 3,9 C 43 % 94 % 15 lf 7 cb 1007,8 hPa 0,0 mm 3,5 km/h (1 Bft) N-NW 328 0 min 0 min 0,026 mm 0,0 UV-I 83 W/m -0,2 C 0,7 C 6,4 km/h (2 Bft) 100,00 %
21.01.2018 09:25 21,9 C 0,4 C 3,9 C 43 % 96 % 15 lf 7 cb 1006,3 hPa 0,0 mm 3,5 km/h (1 Bft) N-NW 328 0 min 0 min 0,025 mm 0,0 UV-I 111 W/m -0,2 C 0,4 C 4,8 km/h (1 Bft) 98,94 %
21.01.2018 08:30 21,9 C -0,2 C 3,9 C 43 % 96 % 6 lf 7 cb 1005,5 hPa 0,0 mm 4,4 km/h (1 Bft) NW 317 0 min 0 min 0,000 mm 0,0 UV-I 25 W/m -0,8 C -0,2 C 8,0 km/h (2 Bft) 97,44 %
21.01.2018 07:30 21,8 C -0,4 C 3,9 C 43 % 96 % 1 lf 7 cb 1004,4 hPa 0,0 mm 4,6 km/h (1 Bft) NW 311 0 min 0 min 0,000 mm 0,0 UV-I 1 W/m -1,0 C -0,4 C 6,4 km/h (2 Bft) 97,56 %
21.01.2018 06:30 21,8 C -0,5 C 3,9 C 43 % 96 % 1 lf 7 cb 1003,0 hPa 0,0 mm 6,4 km/h (2 Bft) N-NW 330 0 min 0 min 0,000 mm 0,0 UV-I 0 W/m -1,1 C -0,5 C 9,7 km/h (2 Bft) 100,00 %
21.01.2018 05:30 21,8 C -0,6 C 3,9 C 43 % 96 % 1 lf 7 cb 1001,9 hPa 0,0 mm 9,7 km/h (2 Bft) N 352 0 min 0 min 0,000 mm 0,0 UV-I 0 W/m -1,2 C -3,9 C 12,9 km/h (3 Bft) 100,00 %
21.01.2018 04:30 21,7 C -0,7 C 3,9 C 43 % 96 % 1 lf 7 cb 1001,1 hPa 0,0 mm 6,4 km/h (2 Bft) N 352 0 min 0 min 0,000 mm 0,0 UV-I 0 W/m -1,3 C -0,7 C 8,0 km/h (2 Bft) 100,00 %
21.01.2018 03:30 21,7 C -0,8 C 3,9 C 43 % 96 % 1 lf 7 cb 1000,4 hPa 0,0 mm 3,2 km/h (1 Bft) N 352 0 min 0 min 0,000 mm 0,0 UV-I 0 W/m -1,4 C -0,8 C 6,4 km/h (2 Bft) 100,00 %
21.01.2018 02:30 21,6 C -0,9 C 3,9 C 43 % 95 % 1 lf 7 cb 1000,3 hPa 0,0 mm 4,8 km/h (1 Bft) N 352 0 min 0 min 0,000 mm 0,0 UV-I 0 W/m -1,6 C -0,9 C 8,0 km/h (2 Bft) 100,00 %
21.01.2018 01:30 21,6 C -0,8 C 3,9 C 43 % 94 % 1 lf 7 cb 1000,2 hPa 0,0 mm 4,8 km/h (1 Bft) NO 37 0 min 0 min 0,000 mm 0,0 UV-I 0 W/m -1,6 C -0,8 C 8,0 km/h (2 Bft) 100,00 %
21.01.2018 00:30 21,6 C -0,9 C 3,9 C 43 % 94 % 0 lf 7 cb 1000,5 hPa 0,0 mm 4,8 km/h (1 Bft) N-NO 15 0 min 0 min 0,000 mm 0,0 UV-I 0 W/m -1,7 C -0,9 C 9,7 km/h (2 Bft) 100,00 %
20.01.2018 23:30 21,5 C -0,6 C 3,9 C 43 % 93 % 0 lf 7 cb 1000,8 hPa 0,0 mm 6,4 km/h (2 Bft) NO 37 0 min 0 min 0,000 mm 0,0 UV-I 0 W/m -1,6 C -0,6 C 12,9 km/h (3 Bft) 100,00 %
20.01.2018 22:30 21,4 C -0,9 C 3,9 C 43 % 93 % 0 lf 7 cb 1001,7 hPa 0,0 mm 0,0 km/h (0 Bft) N-NO 15 0 min 0 min 0,000 mm 0,0 UV-I 0 W/m -1,9 C -0,9 C 0,0 km/h (0 Bft) 100,00 %
20.01.2018 21:30 21,4 C -0,5 C 3,9 C 43 % 92 % 0 lf 7 cb 1003,0 hPa 0,0 mm 0,0 km/h (0 Bft) O-SO 105 0 min 0 min 0,000 mm 0,0 UV-I 0 W/m -1,6 C -0,5 C 1,6 km/h (1 Bft) 100,00 %
20.01.2018 20:30 21,4 C 0,4 C 3,9 C 43 % 90 % 0 lf 7 cb 1004,3 hPa 0,0 mm 0,0 km/h (0 Bft) N-NO 15 0 min 0 min 0,000 mm 0,0 UV-I 0 W/m -1,0 C 0,4 C 0,0 km/h (0 Bft) 100,00 %
20.01.2018 19:30 21,4 C 0,8 C 3,9 C 43 % 89 % 0 lf 7 cb 1005,8 hPa 0,0 mm 0,0 km/h (0 Bft) N-NO 15 0 min 0 min 0,000 mm 0,0 UV-I 0 W/m -0,8 C 0,8 C 0,0 km/h (0 Bft) 100,00 %
20.01.2018 18:30 21,2 C 1,9 C 3,9 C 44 % 86 % 0 lf 7 cb 1007,3 hPa 0,0 mm 3,2 km/h (1 Bft) S-SO 150 0 min 0 min 0,025 mm 0,0 UV-I 0 W/m -0,2 C 1,9 C 6,4 km/h (2 Bft) 100,00 %
20.01.2018 17:30 20,7 C 2,3 C 3,9 C 44 % 83 % 0 lf 7 cb 1008,2 hPa 0,0 mm 9,7 km/h (2 Bft) SW 217 0 min 0 min 0,025 mm 0,0 UV-I 0 W/m -0,3 C -0,7 C 14,5 km/h (3 Bft) 100,00 %
20.01.2018 16:30 20,8 C 2,2 C 3,9 C 44 % 85 % 0 lf 7 cb 1008,9 hPa 0,0 mm 6,4 km/h (2 Bft) W-SW 240 10 min 0 min 0,051 mm 0,0 UV-I 8 W/m -0,1 C 2,2 C 12,9 km/h (3 Bft) 100,00 %
20.01.2018 15:30 21,2 C 2,9 C 3,9 C 43 % 84 % 0 lf 7 cb 1009,4 hPa 0,0 mm 9,7 km/h (2 Bft) W-NW 285 54 min 0 min 0,101 mm 0,0 UV-I 106 W/m 0,5 C -0,0 C 16,1 km/h (3 Bft) 100,00 %
20.01.2018 14:50 20,9 C 2,9 C 3,9 C 44 % 84 % 0 lf 7 cb 1009,7 hPa 0,0 mm 22,4 km/h (4 Bft) W-SW 240 35 min 0 min 0,027 mm 0,0 UV-I 217 W/m 0,5 C -6,9 C 35,4 km/h (5 Bft) 100,00 %
20.01.2018 13:50 21,1 C 2,2 C 3,9 C 44 % 89 % 0 lf 7 cb 1010,0 hPa 0,0 mm 14,5 km/h (3 Bft) W-SW 253 0 min 0 min 0,102 mm 0,5 UV-I 123 W/m 0,6 C -4,0 C 25,7 km/h (4 Bft) 96,83 %
20.01.2018 12:50 21,5 C 3,1 C 3,9 C 43 % 82 % 0 lf 7 cb 1010,3 hPa 0,2 mm 19,3 km/h (3 Bft) W-NW 285 24 min 5 min 0,051 mm 0,7 UV-I 192 W/m 0,3 C -5,3 C 32,2 km/h (5 Bft) 100,00 %
20.01.2018 12:00 21,6 C 2,2 C 3,9 C 43 % 87 % 0 lf 7 cb 1011,3 hPa 0,0 mm 9,7 km/h (2 Bft) W 262 0 min 0 min 0,051 mm 0,7 UV-I 116 W/m 0,3 C -0,8 C 17,7 km/h (3 Bft) 100,00 %
_ Min-Zeit 17:25 22:15 12:00 15:40 12:50 12:00 12:00 01:30 - 19:15 - - - - - - - 21:55 14:50 19:20 01:15
Minimum _ 20,7 C -0,9 C 3,9 C 42 % 82 % 0 lf 7 cb 1000,2 hPa - 0,0 km/h (0 Bft) - - - - - - - -1,9 C -6,9 C 0,0 km/h (0 Bft) 79,82 %
_ Max-Zeit 08:05 12:55 12:00 16:05 03:30 08:50 12:00 12:05 12:40 14:50 - - 12:29 12:40 13:00 12:10 14:30 14:35 16:15 12:45 12:00
Maximum _ 21,9 C 3,2 C 3,9 C 45 % 96 % 15 lf 7 cb 1011,5 hPa 0,2 mm 22,4 km/h
W-SW (4 Bft)
- - 9 min 5 min 0,102 mm 0,9 UV-I 310 W/m 0,8 C 2,4 C 35,4 km/h
NW (5 Bft)
100,00 %
Durchschnitt _ 21,5 C 0,6 C 3,9 C 43 % 91 % 2 lf 7 cb 1005,4 hPa #0,6 mm 6,5 km/h (2 Bft) N - #0 min. #10 min. #0,076 mm 0,4 UV-I 68 W/m -0,7 C -0,9 C 11,2 km/h (2 Bft) 99,59 %